createdAt,value
2022-08-31T00:00:18.071Z,95.67
2022-08-31T00:05:23.098Z,95.33
2022-08-31T00:10:32.407Z,95.68
2022-08-31T00:15:40.731Z,95.93
2022-08-31T00:20:47.749Z,95.55
2022-08-31T00:25:51.501Z,95.60
2022-08-31T00:30:55.028Z,94.93
2022-08-31T00:36:00.108Z,94.71
2022-08-31T00:41:05.872Z,95.36
2022-08-31T00:46:10.905Z,95.26
2022-08-31T00:51:18.974Z,95.13
2022-08-31T00:56:24.163Z,95.73
2022-08-31T01:01:28.774Z,95.63
2022-08-31T01:06:33.976Z,95.83
2022-08-31T01:11:39.784Z,96.52
2022-08-31T01:16:47.097Z,97.56
2022-08-31T01:22:00.686Z,97.20
2022-08-31T01:27:07.864Z,96.41
2022-08-31T01:32:11.455Z,96.34
2022-08-31T01:37:15.324Z,96.28
2022-08-31T01:42:20.791Z,96.02
2022-08-31T01:47:24.599Z,95.22
2022-08-31T01:52:29.468Z,95.18
2022-08-31T01:57:34.760Z,95.06
2022-08-31T02:02:58.288Z,94.96
2022-08-31T02:08:01.890Z,94.53
2022-08-31T02:13:08.781Z,94.86
2022-08-31T02:18:13.499Z,94.02
2022-08-31T02:23:17.257Z,93.64
2022-08-31T02:28:22.675Z,93.74
2022-08-31T02:33:28.530Z,93.12
2022-08-31T02:38:32.390Z,91.75
2022-08-31T02:43:37.285Z,91.71
2022-08-31T02:48:40.851Z,90.85
2022-08-31T02:53:47.074Z,91.11
2022-08-31T02:58:55.183Z,90.93
2022-08-31T03:04:00.933Z,90.96
2022-08-31T03:09:05.456Z,91.66
2022-08-31T03:14:10.404Z,92.28
2022-08-31T03:19:13.952Z,92.38
2022-08-31T03:24:19.052Z,92.69
2022-08-31T03:29:26.779Z,92.75
2022-08-31T03:34:54.706Z,91.49
2022-08-31T03:39:58.649Z,91.03
2022-08-31T03:45:04.168Z,89.88
2022-08-31T03:50:11.328Z,89.12
2022-08-31T03:55:25.401Z,88.68
2022-08-31T04:00:31.280Z,87.79
2022-08-31T04:05:44.613Z,87.88
2022-08-31T04:10:53.360Z,87.41
2022-08-31T04:16:21.603Z,86.77
2022-08-31T04:21:45.887Z,86.94
2022-08-31T04:26:52.477Z,86.91
2022-08-31T04:31:57.300Z,86.63
2022-08-31T04:37:02.037Z,86.27
2022-08-31T04:42:06.556Z,86.09
2022-08-31T04:47:12.424Z,85.47
2022-08-31T04:52:15.916Z,85.64
2022-08-31T04:57:19.437Z,85.46
2022-08-31T05:02:24.359Z,85.07
2022-08-31T05:07:35.450Z,83.88
2022-08-31T05:12:39.161Z,83.83
2022-08-31T05:17:44.045Z,83.05
2022-08-31T05:22:47.612Z,82.70
2022-08-31T05:27:51.148Z,82.01
2022-08-31T05:32:59.340Z,80.86
2022-08-31T05:38:02.827Z,80.35
2022-08-31T05:43:07.252Z,80.22
2022-08-31T05:48:12.131Z,79.96
2022-08-31T05:53:17.050Z,79.60
2022-08-31T05:58:21.400Z,78.98
2022-08-31T06:03:27.296Z,77.98
2022-08-31T06:08:30.873Z,76.90
2022-08-31T06:13:34.862Z,77.22
2022-08-31T06:18:41.028Z,76.96
2022-08-31T06:23:45.287Z,76.70
2022-08-31T06:28:50.574Z,77.40
2022-08-31T06:33:56.673Z,76.93
2022-08-31T06:39:32.299Z,77.34
2022-08-31T06:44:51.303Z,77.05
2022-08-31T06:49:58.273Z,76.88
2022-08-31T06:55:02.276Z,76.94
2022-08-31T07:00:28.970Z,77.16
2022-08-31T07:05:44.416Z,78.11
2022-08-31T07:10:48.438Z,78.23
2022-08-31T07:15:52.128Z,77.92
2022-08-31T07:21:08.238Z,78.45
2022-08-31T07:26:13.794Z,79.24
2022-08-31T07:31:17.617Z,79.52
2022-08-31T07:36:24.781Z,79.73
2022-08-31T07:41:58.974Z,80.12
2022-08-31T07:47:04.035Z,79.50
2022-08-31T07:52:11.478Z,74.80
2022-08-31T07:57:37.942Z,67.57
2022-08-31T08:02:50.802Z,63.21
2022-08-31T08:08:09.410Z,58.18
2022-08-31T08:13:33.207Z,54.07
2022-08-31T08:18:44.429Z,50.31
2022-08-31T08:23:52.740Z,49.40
2022-08-31T08:29:15.889Z,47.69
2022-08-31T08:34:22.116Z,48.04
2022-08-31T08:39:37.538Z,49.79
2022-08-31T08:44:50.148Z,52.65
2022-08-31T08:49:56.226Z,54.72
2022-08-31T08:55:06.853Z,56.93
2022-08-31T09:00:15.710Z,59.06
2022-08-31T09:05:45.295Z,60.36
2022-08-31T09:11:17.733Z,62.12
2022-08-31T09:16:40.250Z,63.23
2022-08-31T09:21:48.008Z,65.00
2022-08-31T09:27:17.485Z,66.07
2022-08-31T09:32:26.332Z,66.18
2022-08-31T09:37:35.451Z,67.25
2022-08-31T09:42:40.576Z,67.16
2022-08-31T09:47:53.001Z,66.75
2022-08-31T09:53:25.346Z,67.31
2022-08-31T09:58:31.025Z,66.32
2022-08-31T10:03:38.272Z,66.07
2022-08-31T10:08:46.300Z,64.48
2022-08-31T10:13:58.898Z,64.28
2022-08-31T10:19:07.348Z,62.75
2022-08-31T10:24:21.930Z,62.69
2022-08-31T10:29:42.082Z,61.17
2022-08-31T10:35:07.049Z,60.32
2022-08-31T10:40:27.383Z,59.38
2022-08-31T10:45:37.845Z,58.34
2022-08-31T10:50:49.052Z,57.50
2022-08-31T10:56:00.092Z,56.51
2022-08-31T11:01:14.323Z,56.19
2022-08-31T11:06:24.887Z,55.48
2022-08-31T11:11:42.348Z,53.83
2022-08-31T11:17:06.497Z,52.63
2022-08-31T11:22:29.732Z,53.24
2022-08-31T11:27:37.142Z,52.51
2022-08-31T11:32:47.299Z,52.49
2022-08-31T11:37:56.838Z,51.14
2022-08-31T11:43:01.543Z,51.14
2022-08-31T11:48:11.642Z,49.63
2022-08-31T11:53:25.479Z,48.61
2022-08-31T11:58:33.848Z,47.72
2022-08-31T12:03:46.159Z,48.05
2022-08-31T12:08:54.741Z,48.21
2022-08-31T12:14:05.585Z,46.91
2022-08-31T12:19:55.745Z,45.90
2022-08-31T12:25:12.869Z,44.80
2022-08-31T12:30:21.257Z,44.34
2022-08-31T12:35:27.214Z,43.85
2022-08-31T12:40:33.754Z,44.50
2022-08-31T12:46:20.185Z,44.45
2022-08-31T12:51:39.904Z,44.78
2022-08-31T12:56:52.405Z,44.14
2022-08-31T13:01:56.158Z,44.05
2022-08-31T13:07:14.780Z,43.13
2022-08-31T13:12:25.008Z,43.18
2022-08-31T13:17:33.405Z,42.84
2022-08-31T13:22:41.416Z,42.72
2022-08-31T13:27:52.551Z,42.14
2022-08-31T13:32:57.132Z,42.00
2022-08-31T13:38:05.383Z,42.28
2022-08-31T13:43:11.880Z,41.62
2022-08-31T13:48:21.653Z,40.82
2022-08-31T13:53:40.563Z,41.40
2022-08-31T13:58:45.875Z,40.43
2022-08-31T14:03:57.319Z,40.23
2022-08-31T14:09:05.280Z,40.35
2022-08-31T14:14:12.918Z,40.35
2022-08-31T14:19:31.084Z,39.87
2022-08-31T14:24:34.709Z,40.07
2022-08-31T14:29:41.099Z,40.88
2022-08-31T14:34:48.766Z,40.58
2022-08-31T14:39:55.372Z,40.44
2022-08-31T14:45:03.055Z,40.68
2022-08-31T14:50:07.528Z,40.28
2022-08-31T14:55:13.422Z,39.77
2022-08-31T15:00:22.121Z,40.13
2022-08-31T15:05:26.838Z,39.96
2022-08-31T15:10:30.307Z,40.19
2022-08-31T15:15:36.195Z,40.45
2022-08-31T15:20:41.662Z,40.43
2022-08-31T15:25:45.298Z,40.33
2022-08-31T15:30:50.290Z,40.35
2022-08-31T15:36:03.264Z,39.98
2022-08-31T15:41:08.125Z,40.46
2022-08-31T15:46:14.442Z,40.31
2022-08-31T15:51:21.920Z,40.29
2022-08-31T15:56:26.150Z,40.25
2022-08-31T16:01:31.268Z,40.47
2022-08-31T16:06:37.409Z,40.27
2022-08-31T16:11:41.021Z,40.31
2022-08-31T16:16:48.749Z,40.36
2022-08-31T16:21:52.705Z,40.17
2022-08-31T16:26:58.882Z,40.12
2022-08-31T16:32:04.665Z,40.04
2022-08-31T16:37:09.152Z,40.21
2022-08-31T16:42:14.466Z,40.19
2022-08-31T16:47:20.217Z,40.66
2022-08-31T16:52:26.786Z,40.50
2022-08-31T16:57:32.700Z,40.72
2022-08-31T17:02:37.715Z,40.92
2022-08-31T17:07:42.848Z,41.04
2022-08-31T17:12:48.422Z,41.12
2022-08-31T17:17:53.517Z,41.23
2022-08-31T17:22:57.143Z,41.55
2022-08-31T17:28:07.696Z,41.79
2022-08-31T17:33:14.287Z,41.72
2022-08-31T17:38:18.430Z,41.99
2022-08-31T17:43:22.206Z,42.20
2022-08-31T17:48:30.007Z,41.96
2022-08-31T17:53:34.330Z,42.06
2022-08-31T17:58:38.162Z,42.01
2022-08-31T18:03:43.119Z,42.09
2022-08-31T18:08:46.772Z,41.92
2022-08-31T18:13:53.623Z,42.39
2022-08-31T18:18:58.647Z,42.57
2022-08-31T18:24:02.400Z,42.55
2022-08-31T18:29:08.719Z,42.63
2022-08-31T18:34:19.085Z,42.50
2022-08-31T18:39:50.116Z,42.86
2022-08-31T18:45:06.626Z,42.86
2022-08-31T18:50:11.806Z,42.77
2022-08-31T18:55:16.104Z,42.83
2022-08-31T19:00:19.904Z,42.66
2022-08-31T19:05:24.727Z,42.78
2022-08-31T19:10:28.563Z,42.67
2022-08-31T19:15:36.187Z,42.80
2022-08-31T19:20:41.448Z,42.70
2022-08-31T19:25:48.385Z,42.64
2022-08-31T19:30:51.965Z,42.78
2022-08-31T19:36:04.554Z,42.55
2022-08-31T19:41:16.098Z,42.76
2022-08-31T19:46:21.344Z,42.76
2022-08-31T19:51:27.959Z,42.77
2022-08-31T19:56:31.804Z,42.91
2022-08-31T20:01:35.961Z,42.92
2022-08-31T20:06:41.819Z,42.92
2022-08-31T20:11:47.663Z,42.86
2022-08-31T20:16:52.253Z,42.85
2022-08-31T20:22:08.011Z,42.63
2022-08-31T20:27:16.614Z,42.58
2022-08-31T20:32:23.660Z,42.43
2022-08-31T20:37:28.759Z,42.17
2022-08-31T20:42:32.307Z,42.06
2022-08-31T20:47:53.987Z,41.52
2022-08-31T20:52:59.221Z,41.54
2022-08-31T20:58:03.291Z,41.73
2022-08-31T21:03:07.265Z,41.67
2022-08-31T21:08:15.431Z,41.85
2022-08-31T21:13:19.098Z,41.85
2022-08-31T21:18:23.497Z,41.77
2022-08-31T21:23:29.421Z,42.37
2022-08-31T21:28:34.041Z,43.07
2022-08-31T21:33:37.547Z,44.32
2022-08-31T21:38:43.456Z,45.89
2022-08-31T21:43:47.114Z,47.37
2022-08-31T21:48:52.536Z,50.58
2022-08-31T21:54:00.129Z,52.36
2022-08-31T21:59:04.444Z,55.12
2022-08-31T22:04:09.849Z,57.27
2022-08-31T22:09:17.253Z,59.88
2022-08-31T22:14:26.168Z,61.28
2022-08-31T22:19:29.810Z,63.34
2022-08-31T22:24:35.917Z,64.75
2022-08-31T22:29:41.446Z,65.38
2022-08-31T22:34:46.124Z,67.49
2022-08-31T22:39:55.225Z,67.88
2022-08-31T22:44:58.867Z,69.63
2022-08-31T22:50:02.350Z,71.22
2022-08-31T22:55:09.126Z,72.10
2022-08-31T23:00:13.254Z,72.37
2022-08-31T23:05:18.451Z,72.47
2022-08-31T23:10:24.145Z,73.56
2022-08-31T23:15:29.128Z,73.84
2022-08-31T23:20:32.582Z,75.00
2022-08-31T23:25:37.376Z,75.12
2022-08-31T23:30:43.343Z,75.84
2022-08-31T23:35:47.606Z,75.94
2022-08-31T23:40:53.993Z,76.41
2022-08-31T23:46:02.412Z,77.28
2022-08-31T23:51:07.719Z,77.34
2022-08-31T23:56:13.053Z,77.17
